Time;durP1;ratioP1;P1;durP2;ratioP2;P2;SDS_P1;SDS_P2;PMS_P1;PMS_P2;Temp;Humidity;BMP_temperature;BMP_pressure;BME280_temperature;BME280_humidity;BME280_pressure;Samples;Min_cycle;Max_cycle;Signal;HPM_P1;HPM_P2
2024/01/01 00:02:00;;;;;;;36.27;33.07;;;;;;;22.65;32.59;95100.16;6168873;28;110474;-64
2024/01/01 00:05:03;;;;;;;35.40;32.20;;;;;;;22.62;32.94;95090.09;6187645;28;109116;-64
2024/01/01 00:08:07;;;;;;;36.10;32.70;;;;;;;22.61;32.57;95087.75;6187658;28;109104;-64
2024/01/01 00:11:12;;;;;;;35.20;32.20;;;;;;;22.59;32.92;95079.25;6177821;28;109526;-64
2024/01/01 00:14:15;;;;;;;33.73;30.73;;;;;;;22.57;32.97;95082.25;6179106;28;110062;-64
2024/01/01 00:17:19;;;;;;;33.47;30.47;;;;;;;22.56;32.87;95083.31;6170516;28;111579;-65
2024/01/01 00:20:22;;;;;;;33.50;30.57;;;;;;;22.55;32.57;95079.06;6161916;28;109279;-65
2024/01/01 00:23:25;;;;;;;32.67;29.53;;;;;;;22.55;32.64;95089.72;6169327;28;109111;-63
2024/01/01 00:26:29;;;;;;;33.70;30.50;;;;;;;22.54;32.61;95096.16;6171688;28;109061;-64
2024/01/01 00:29:32;;;;;;;33.07;30.23;;;;;;;22.54;32.78;95093.50;6165474;28;109308;-61
2024/01/01 00:32:39;;;;;;;34.33;31.33;;;;;;;22.52;32.82;95092.22;6181729;28;109059;-61
2024/01/01 00:35:42;;;;;;;33.67;30.77;;;;;;;22.52;32.48;95097.56;6161005;28;110364;-61
2024/01/01 00:38:45;;;;;;;33.73;30.73;;;;;;;22.54;32.96;95104.16;6185377;28;109319;-61
2024/01/01 00:41:50;;;;;;;34.10;31.10;;;;;;;22.53;32.79;95102.59;6168924;28;109265;-61
2024/01/01 00:44:53;;;;;;;33.30;30.50;;;;;;;22.52;32.45;95106.34;6162163;28;109453;-61
2024/01/01 00:47:56;;;;;;;33.83;30.93;;;;;;;22.52;32.49;95100.22;6157225;28;109165;-61
2024/01/01 00:50:59;;;;;;;34.10;31.07;;;;;;;22.52;32.33;95109.03;6168325;28;109307;-61
2024/01/01 00:54:02;;;;;;;32.50;29.70;;;;;;;22.51;32.59;95099.41;6165795;28;111090;-61
2024/01/01 00:57:07;;;;;;;34.20;31.27;;;;;;;22.51;32.43;95098.63;6162228;28;109934;-61
2024/01/01 01:00:12;;;;;;;33.13;30.20;;;;;;;22.51;32.64;95094.09;6155622;28;111149;-61
2024/01/01 01:03:15;;;;;;;31.83;29.07;;;;;;;22.51;32.79;95093.28;6161325;28;109616;-62
2024/01/01 01:06:21;;;;;;;31.43;28.70;;;;;;;22.49;32.95;95095.50;6175949;28;109100;-62
2024/01/01 01:09:27;;;;;;;31.00;28.20;;;;;;;22.48;32.46;95084.03;6150293;28;109358;-61
2024/01/01 01:12:31;;;;;;;30.53;27.83;;;;;;;22.47;32.17;95081.69;6163254;28;109192;-62
2024/01/01 01:15:35;;;;;;;29.17;26.67;;;;;;;22.46;32.62;95074.78;6170077;28;110078;-61
2024/01/01 01:18:38;;;;;;;30.70;28.03;;;;;;;22.45;32.62;95079.31;6161608;28;108868;-61
2024/01/01 01:21:41;;;;;;;29.10;26.50;;;;;;;22.45;32.60;95074.00;6168227;28;110468;-61
2024/01/01 01:24:44;;;;;;;28.80;26.30;;;;;;;22.44;32.68;95061.75;6164265;28;109141;-61
2024/01/01 01:27:49;;;;;;;29.53;26.83;;;;;;;22.45;32.62;95062.53;6164591;28;109298;-61
2024/01/01 01:30:52;;;;;;;29.60;26.90;;;;;;;22.45;32.72;95070.53;6174581;28;109493;-61
2024/01/01 01:33:55;;;;;;;27.33;24.93;;;;;;;22.44;32.17;95059.09;6176499;28;109474;-61
2024/01/01 01:36:58;;;;;;;27.37;24.97;;;;;;;22.46;32.70;95058.78;6170306;28;110321;-61
2024/01/01 01:40:01;;;;;;;27.23;24.77;;;;;;;22.44;32.34;95053.75;6160363;28;109266;-61
2024/01/01 01:43:20;;;;;;;27.43;25.03;;;;;;;22.46;32.57;95056.09;6152761;28;109242;-61
2024/01/01 01:46:24;;;;;;;25.77;23.60;;;;;;;22.46;32.60;95059.56;6184743;28;110035;-61
2024/01/01 01:49:28;;;;;;;29.33;26.73;;;;;;;22.43;32.36;95052.19;6179588;28;110457;-60
2024/01/01 01:52:31;;;;;;;28.23;25.73;;;;;;;22.47;32.45;95060.34;6160617;28;109085;-61
2024/01/01 01:55:34;;;;;;;29.23;26.63;;;;;;;22.45;32.03;95055.31;6156483;28;110236;-61
2024/01/01 01:58:40;;;;;;;28.30;25.73;;;;;;;22.44;32.29;95051.09;6161172;28;110257;-61
2024/01/01 02:01:44;;;;;;;28.57;26.07;;;;;;;22.44;32.41;95051.09;6166182;28;110135;-61
2024/01/01 02:04:47;;;;;;;30.97;28.17;;;;;;;22.42;32.59;95047.94;6161277;28;109100;-61
2024/01/01 02:07:50;;;;;;;30.87;27.97;;;;;;;22.42;32.51;95053.28;6164819;28;109814;-61
2024/01/01 02:10:54;;;;;;;31.70;28.80;;;;;;;22.42;32.24;95054.06;6159763;28;110055;-61
2024/01/01 02:14:09;;;;;;;32.23;29.33;;;;;;;22.38;32.23;95061.09;6161131;28;110191;-61
2024/01/01 02:17:13;;;;;;;32.03;29.03;;;;;;;22.39;32.30;95060.00;6165357;28;110037;-61
2024/01/01 02:20:16;;;;;;;32.00;29.17;;;;;;;22.39;32.52;95059.22;6174389;28;109228;-61
2024/01/01 02:23:24;;;;;;;32.57;29.60;;;;;;;22.39;31.96;95056.56;6182026;28;109310;-61
2024/01/01 02:26:28;;;;;;;33.53;30.63;;;;;;;22.39;31.93;95065.34;6176748;28;109684;-61
2024/01/01 02:29:31;;;;;;;34.10;30.90;;;;;;;22.42;32.03;95069.28;6154909;28;110178;-61
2024/01/01 02:32:34;;;;;;;32.17;29.37;;;;;;;22.46;31.65;95075.56;6172199;28;110239;-61
2024/01/01 02:35:37;;;;;;;34.13;31.00;;;;;;;22.47;32.23;95074.47;6171056;28;109207;-61
2024/01/01 02:38:42;;;;;;;33.60;30.70;;;;;;;22.49;32.01;95080.28;6164778;28;109538;-61
2024/01/01 02:41:45;;;;;;;34.03;30.83;;;;;;;22.49;32.22;95090.94;6171207;28;109321;-61
2024/01/01 02:44:48;;;;;;;34.40;31.23;;;;;;;22.49;31.96;95085.59;6169936;28;109164;-60
2024/01/01 02:47:51;;;;;;;35.63;32.43;;;;;;;22.49;31.77;95076.81;6169359;28;109780;-60
2024/01/01 02:50:54;;;;;;;35.30;32.10;;;;;;;22.48;31.92;95070.69;6150591;28;109103;-60
2024/01/01 02:53:59;;;;;;;35.00;31.90;;;;;;;22.48;32.33;95065.38;6161476;28;110400;-60
2024/01/01 02:57:02;;;;;;;34.93;31.73;;;;;;;22.45;32.11;95068.66;6171931;28;109629;-66
2024/01/01 03:00:09;;;;;;;37.00;33.80;;;;;;;22.45;31.82;95062.53;6168640;28;109363;-60
2024/01/01 03:03:12;;;;;;;37.77;34.17;;;;;;;22.43;32.35;95060.19;6153865;28;109189;-62
2024/01/01 03:06:18;;;;;;;36.70;33.30;;;;;;;22.42;32.01;95048.72;6177247;28;109642;-60
2024/01/01 03:09:23;;;;;;;39.03;35.30;;;;;;;22.43;32.19;95054.84;6173488;28;110528;-60
2024/01/01 03:12:27;;;;;;;38.03;34.77;;;;;;;22.41;32.18;95049.03;6177898;28;109683;-60
2024/01/01 03:15:30;;;;;;;39.80;36.27;;;;;;;22.40;32.31;95037.59;6163153;28;111619;-60
2024/01/01 03:18:33;;;;;;;40.20;36.60;;;;;;;22.39;32.45;95028.03;6163382;28;109225;-60
2024/01/01 03:21:37;;;;;;;40.13;36.53;;;;;;;22.40;31.79;95029.59;6162565;28;109099;-60
2024/01/01 03:24:41;;;;;;;40.13;36.40;;;;;;;22.38;32.44;95026.44;6168452;28;109117;-60
2024/01/01 03:27:44;;;;;;;40.97;37.07;;;;;;;22.37;32.03;95018.75;6166149;28;109143;-60
2024/01/01 03:30:47;;;;;;;40.20;36.60;;;;;;;22.38;32.03;95015.00;6178771;28;109493;-60
2024/01/01 03:33:50;;;;;;;40.37;36.77;;;;;;;22.38;31.90;95007.00;6179337;28;109113;-60
2024/01/01 03:36:53;;;;;;;40.23;36.27;;;;;;;22.37;31.95;95006.22;6154691;28;109619;-60
2024/01/01 03:39:58;;;;;;;41.93;38.10;;;;;;;22.37;32.13;95013.44;6163000;28;109263;-60
2024/01/01 03:43:01;;;;;;;41.63;37.73;;;;;;;22.36;32.07;95001.97;6163048;28;109107;-60
2024/01/01 03:46:04;;;;;;;41.70;37.80;;;;;;;22.34;32.20;95012.13;6178792;28;109298;-60
2024/01/01 03:49:08;;;;;;;40.93;37.23;;;;;;;22.38;32.09;95010.44;6168043;28;109545;-60
2024/01/01 03:52:11;;;;;;;40.53;36.83;;;;;;;22.35;31.94;94997.75;6170307;28;109045;-63
2024/01/01 03:55:15;;;;;;;41.50;37.70;;;;;;;22.34;32.06;95001.47;6169944;28;110078;-60
2024/01/01 03:58:19;;;;;;;43.57;39.37;;;;;;;22.33;31.90;95009.78;6176803;28;109178;-60
2024/01/01 04:01:22;;;;;;;41.67;37.77;;;;;;;22.32;31.79;94994.88;6158332;28;110080;-60
2024/01/01 04:04:25;;;;;;;43.10;39.10;;;;;;;22.31;32.07;95003.97;6187005;28;110129;-60
2024/01/01 04:07:29;;;;;;;44.47;40.17;;;;;;;22.30;32.44;94997.06;6167173;28;109242;-60
2024/01/01 04:10:33;;;;;;;41.07;37.27;;;;;;;22.30;32.05;94999.75;6159184;28;108829;-61
2024/01/01 04:13:36;;;;;;;44.47;40.30;;;;;;;22.30;31.74;95003.19;6159100;28;110094;-60
2024/01/01 04:16:39;;;;;;;42.90;38.80;;;;;;;22.30;32.13;94997.06;6162013;28;110701;-60
2024/01/01 04:19:47;;;;;;;43.83;39.73;;;;;;;22.30;31.72;95005.06;6182767;28;109113;-60
2024/01/01 04:22:51;;;;;;;45.17;40.87;;;;;;;22.27;31.71;94995.81;6171391;28;109029;-60
2024/01/01 04:25:56;;;;;;;45.10;40.70;;;;;;;22.29;31.62;94996.28;6179504;28;109897;-61
2024/01/01 04:28:59;;;;;;;45.20;41.00;;;;;;;22.30;32.15;95005.06;6163677;28;109117;-60
2024/01/01 04:32:02;;;;;;;42.70;39.00;;;;;;;22.29;31.65;95004.28;6169040;28;110177;-60
2024/01/01 04:35:06;;;;;;;44.80;40.57;;;;;;;22.29;32.05;95009.63;6158434;28;109633;-61
2024/01/01 04:38:09;;;;;;;44.27;40.07;;;;;;;22.30;32.07;95010.41;6162469;28;109936;-60
2024/01/01 04:41:14;;;;;;;43.30;39.40;;;;;;;22.30;32.11;95007.75;6169935;28;109018;-60
2024/01/01 04:44:17;;;;;;;45.60;41.20;;;;;;;22.28;31.90;95001.94;6182009;28;110937;-61
2024/01/01 04:47:22;;;;;;;43.73;39.90;;;;;;;22.27;31.80;95003.81;6166664;28;110058;-61
2024/01/01 04:50:25;;;;;;;43.77;39.87;;;;;;;22.27;32.06;95005.69;6164442;28;109516;-60
2024/01/01 04:53:28;;;;;;;42.73;38.87;;;;;;;22.26;32.03;95012.13;6161512;28;109743;-61
2024/01/01 04:56:33;;;;;;;44.50;40.40;;;;;;;22.26;31.64;95004.13;6153499;28;109288;-61
2024/01/01 04:59:36;;;;;;;41.20;37.40;;;;;;;22.24;32.08;94999.09;6161824;28;111021;-61
2024/01/01 05:02:39;;;;;;;42.90;39.00;;;;;;;22.24;31.82;94993.78;6168896;28;110158;-61
2024/01/01 05:05:42;;;;;;;41.73;37.93;;;;;;;22.23;32.11;94992.19;6161678;28;109628;-60
2024/01/01 05:08:45;;;;;;;41.23;37.33;;;;;;;22.24;31.74;94992.97;6151755;28;109426;-61
2024/01/01 05:11:50;;;;;;;42.27;38.30;;;;;;;22.23;31.82;94980.75;6177148;28;109237;-62
2024/01/01 05:14:53;;;;;;;40.40;36.80;;;;;;;22.23;31.63;94986.06;6171291;28;110205;-62
2024/01/01 05:17:56;;;;;;;40.90;37.10;;;;;;;22.22;31.78;94995.97;6184047;28;109235;-62
2024/01/01 05:20:59;;;;;;;40.27;36.27;;;;;;;22.24;31.77;94990.31;6150478;28;109384;-62
2024/01/01 05:24:02;;;;;;;39.80;36.10;;;;;;;22.23;31.91;94992.19;6160872;28;109119;-61
2024/01/01 05:27:09;;;;;;;40.50;36.70;;;;;;;22.24;31.46;94985.00;6178043;28;110598;-61
2024/01/01 05:30:12;;;;;;;38.50;34.93;;;;;;;22.24;31.75;94985.78;6158439;28;109231;-61
2024/01/01 05:33:15;;;;;;;38.03;34.53;;;;;;;22.23;31.43;94988.75;6176312;28;109390;-62
2024/01/01 05:36:19;;;;;;;38.30;34.60;;;;;;;22.24;31.69;94987.66;6185563;28;109070;-62
2024/01/01 05:39:22;;;;;;;38.67;34.97;;;;;;;22.22;31.72;94987.97;6181778;28;110129;-62
2024/01/01 05:42:28;;;;;;;35.83;32.53;;;;;;;22.22;31.33;94990.63;6173690;28;109294;-62
2024/01/01 05:45:31;;;;;;;35.13;32.03;;;;;;;22.21;31.83;94978.41;6165940;28;110955;-62
2024/01/01 05:48:34;;;;;;;35.70;32.43;;;;;;;22.21;31.28;94973.06;6161879;28;109998;-61
2024/01/01 05:51:43;;;;;;;36.70;33.20;;;;;;;22.21;31.54;94972.28;6180910;28;109867;-62
2024/01/01 05:54:46;;;;;;;36.10;32.90;;;;;;;22.18;31.78;94984.34;6161063;28;109862;-61
2024/01/01 05:57:51;;;;;;;36.53;33.23;;;;;;;22.19;31.30;94987.78;6178065;28;110786;-62
2024/01/01 06:00:54;;;;;;;37.47;34.07;;;;;;;22.19;31.65;94985.91;6167789;28;109121;-62
2024/01/01 06:03:57;;;;;;;36.30;33.00;;;;;;;22.19;31.00;94980.59;6158342;28;109100;-62
2024/01/01 06:07:00;;;;;;;36.33;33.13;;;;;;;22.18;31.17;94984.34;6167895;28;109433;-62
2024/01/01 06:10:03;;;;;;;36.20;33.03;;;;;;;22.21;31.50;94985.59;6167345;28;110225;-61
2024/01/01 06:13:08;;;;;;;36.43;33.10;;;;;;;22.20;31.25;94981.38;6183881;28;108666;-62
2024/01/01 06:16:13;;;;;;;37.13;33.83;;;;;;;22.19;31.50;94979.78;6164962;28;109195;-62
2024/01/01 06:19:16;;;;;;;37.63;34.20;;;;;;;22.20;31.06;94992.03;6168321;28;110118;-62
2024/01/01 06:22:19;;;;;;;35.50;32.20;;;;;;;22.19;31.22;94985.13;6179032;28;108921;-64
2024/01/01 06:25:22;;;;;;;37.30;33.80;;;;;;;22.19;31.08;94982.47;6163802;28;109745;-63
2024/01/01 06:28:27;;;;;;;37.40;34.00;;;;;;;22.19;31.25;94974.47;6162564;28;110120;-63
2024/01/01 06:31:30;;;;;;;36.17;32.67;;;;;;;22.18;31.31;94965.69;6162223;28;110244;-64
2024/01/01 06:34:33;;;;;;;39.17;35.23;;;;;;;22.19;31.28;94977.13;6174264;28;109145;-63
2024/01/01 06:37:36;;;;;;;38.43;34.93;;;;;;;22.18;31.37;94968.34;6171473;28;109153;-64
2024/01/01 06:40:39;;;;;;;35.23;32.03;;;;;;;22.17;31.33;94974.75;6165513;28;109118;-64
2024/01/01 06:43:44;;;;;;;37.80;34.20;;;;;;;22.18;31.11;94980.88;6174203;28;110040;-62
2024/01/01 06:46:47;;;;;;;38.40;34.80;;;;;;;22.18;31.65;94970.19;6164108;28;110058;-63
2024/01/01 06:49:50;;;;;;;38.67;35.03;;;;;;;22.22;31.29;94973.84;6166596;28;110200;-62
2024/01/01 06:52:53;;;;;;;36.97;33.40;;;;;;;22.28;31.19;94961.94;6172486;28;109149;-63
2024/01/01 06:55:56;;;;;;;37.57;34.00;;;;;;;22.27;31.46;94950.50;6169539;28;109066;-63
2024/01/01 06:59:01;;;;;;;37.83;34.33;;;;;;;22.30;31.49;94949.09;6175893;28;108957;-63
2024/01/01 07:02:05;;;;;;;37.53;34.17;;;;;;;22.26;31.10;94953.47;6157161;28;109060;-63
2024/01/01 07:05:08;;;;;;;36.90;33.50;;;;;;;22.39;30.92;94960.56;6173209;28;110062;-63
2024/01/01 07:08:12;;;;;;;38.60;34.90;;;;;;;22.71;30.51;94967.44;6177031;28;110054;-63
2024/01/01 07:11:15;;;;;;;36.57;33.27;;;;;;;22.87;30.25;94967.78;6174502;28;109502;-63
2024/01/01 07:14:19;;;;;;;39.23;35.43;;;;;;;22.94;30.46;94957.41;6164402;28;108980;-64
2024/01/01 07:17:22;;;;;;;37.90;34.20;;;;;;;22.99;29.75;94954.56;6176980;28;109352;-64
2024/01/01 07:20:26;;;;;;;38.23;34.83;;;;;;;22.96;30.33;94961.34;6168369;28;109082;-65
2024/01/01 07:23:30;;;;;;;37.43;33.93;;;;;;;23.08;30.36;94960.72;6166759;28;109427;-62
2024/01/01 07:26:33;;;;;;;39.27;35.57;;;;;;;23.14;30.02;94962.13;6167097;28;110749;-63
2024/01/01 07:29:38;;;;;;;38.20;34.80;;;;;;;22.89;30.05;94960.25;6167095;28;109159;-63
2024/01/01 07:32:41;;;;;;;38.47;34.87;;;;;;;22.79;30.70;94966.66;6170089;28;110036;-62
2024/01/01 07:35:44;;;;;;;36.20;32.80;;;;;;;22.75;30.59;94965.72;6160417;28;108879;-61
2024/01/01 07:38:47;;;;;;;35.90;32.50;;;;;;;22.78;30.46;94977.63;6183402;28;109283;-61
2024/01/01 07:41:51;;;;;;;36.17;32.80;;;;;;;22.75;31.40;94987.06;6163920;28;109221;-61
2024/01/01 07:44:56;;;;;;;34.93;31.73;;;;;;;22.74;31.21;94982.03;6169916;28;109545;-61
2024/01/01 07:47:59;;;;;;;37.47;33.50;;;;;;;22.72;31.28;94986.91;6156770;28;109097;-61
2024/01/01 07:51:02;;;;;;;36.40;32.73;;;;;;;22.85;30.98;94985.94;6168701;28;110234;-63
2024/01/01 07:54:05;;;;;;;38.00;34.13;;;;;;;22.81;30.89;94987.69;6174916;28;109109;-63
2024/01/01 07:57:08;;;;;;;35.93;32.57;;;;;;;22.77;31.11;94994.75;6171433;28;110489;-62
2024/01/01 08:00:15;;;;;;;35.23;31.93;;;;;;;22.79;31.34;94997.88;6170431;28;110172;-61
2024/01/01 08:03:20;;;;;;;36.17;32.97;;;;;;;22.72;30.93;94992.22;6177035;28;109164;-61
2024/01/01 08:06:24;;;;;;;35.77;32.27;;;;;;;22.72;30.96;94998.34;6161193;28;109037;-61
2024/01/01 08:09:27;;;;;;;41.00;37.20;;;;;;;22.57;30.52;94999.56;6156545;28;109213;-61
2024/01/01 08:12:30;;;;;;;39.30;35.50;;;;;;;22.54;31.27;94994.81;6182200;28;109113;-61
2024/01/01 08:15:34;;;;;;;35.90;32.60;;;;;;;22.58;31.06;94990.47;6184435;28;109105;-61
2024/01/01 08:18:37;;;;;;;38.30;34.60;;;;;;;22.62;30.46;94987.97;6180566;28;109064;-61
2024/01/01 08:21:40;;;;;;;36.07;32.80;;;;;;;22.63;30.92;94978.84;6162165;28;109351;-62
2024/01/01 08:24:43;;;;;;;36.47;32.87;;;;;;;22.68;31.04;94974.19;6171996;28;110121;-61
2024/01/01 08:27:47;;;;;;;37.77;34.17;;;;;;;22.66;31.09;94972.91;6176024;28;110100;-61
2024/01/01 08:30:51;;;;;;;37.57;34.20;;;;;;;22.67;31.09;94975.25;6175649;28;110139;-62
2024/01/01 08:33:55;;;;;;;37.40;33.90;;;;;;;22.66;30.97;94972.91;6154035;28;109759;-61
2024/01/01 08:37:00;;;;;;;36.03;32.83;;;;;;;22.63;31.33;94982.31;6160464;28;109841;-61
2024/01/01 08:40:04;;;;;;;35.10;31.90;;;;;;;22.61;31.30;94965.84;6176454;28;110078;-61
2024/01/01 08:43:07;;;;;;;36.80;33.40;;;;;;;22.60;31.42;94966.94;6166045;28;108918;-61
2024/01/01 08:46:12;;;;;;;35.53;32.13;;;;;;;22.61;30.92;94978.38;6160801;28;109301;-63
2024/01/01 08:49:15;;;;;;;33.77;30.77;;;;;;;22.60;31.42;94982.94;6174672;28;110078;-62
2024/01/01 08:52:18;;;;;;;35.20;32.10;;;;;;;22.60;31.65;94993.59;6172324;28;109581;-62
2024/01/01 08:55:21;;;;;;;34.33;31.20;;;;;;;22.59;31.58;94993.91;6158312;28;109246;-63
2024/01/01 08:58:24;;;;;;;33.80;30.70;;;;;;;22.59;31.61;94988.59;6177365;28;109295;-63
2024/01/01 09:01:29;;;;;;;33.70;30.60;;;;;;;22.60;31.79;94974.16;6176193;28;108924;-63
2024/01/01 09:04:32;;;;;;;34.27;31.00;;;;;;;22.61;31.55;94981.84;6164462;28;109441;-63
2024/01/01 09:07:36;;;;;;;34.43;31.33;;;;;;;22.50;31.51;94980.50;6165592;28;109292;-62
2024/01/01 09:10:39;;;;;;;35.47;32.10;;;;;;;22.51;31.93;94971.41;6164962;28;109026;-63
2024/01/01 09:13:44;;;;;;;31.83;28.87;;;;;;;22.53;31.64;94985.25;6167442;28;108914;-67
2024/01/01 09:16:49;;;;;;;33.63;30.33;;;;;;;22.54;31.95;94973.50;6170828;28;109128;-62
2024/01/01 09:19:53;;;;;;;32.90;29.70;;;;;;;22.54;31.70;94965.47;6164332;28;109155;-63
2024/01/01 09:22:57;;;;;;;33.20;30.00;;;;;;;22.54;32.04;94965.47;6168265;28;109158;-62
2024/01/01 09:26:03;;;;;;;31.77;28.83;;;;;;;22.52;32.08;94953.56;6169035;28;109415;-62
2024/01/01 09:29:06;;;;;;;31.43;28.47;;;;;;;22.58;31.61;94955.78;6157032;28;110222;-61
2024/01/01 09:32:11;;;;;;;31.00;28.27;;;;;;;22.60;32.18;94963.47;6183126;28;110156;-62
2024/01/01 09:35:14;;;;;;;32.03;28.73;;;;;;;22.59;32.12;94946.69;6180145;28;108878;-61
2024/01/01 09:38:17;;;;;;;31.23;28.43;;;;;;;22.61;31.64;94925.81;6172709;28;110177;-62
2024/01/01 09:41:24;;;;;;;29.13;26.50;;;;;;;22.61;31.91;94912.50;6157223;28;110393;-62
2024/01/01 09:44:28;;;;;;;29.17;26.47;;;;;;;22.62;32.26;94919.41;6168922;28;109093;-62
2024/01/01 09:47:32;;;;;;;29.43;26.40;;;;;;;22.73;32.31;94913.78;6167327;28;111151;-63
2024/01/01 09:50:38;;;;;;;29.90;26.90;;;;;;;22.84;31.76;94909.69;6160970;28;110125;-64
2024/01/01 09:53:45;;;;;;;29.53;26.50;;;;;;;22.76;32.14;94916.59;6159742;28;109940;-74
2024/01/01 09:56:48;;;;;;;29.30;26.40;;;;;;;22.70;31.86;94913.31;6167813;28;109468;-63
2024/01/01 09:59:51;;;;;;;30.10;27.17;;;;;;;22.65;32.03;94913.44;6171964;28;109236;-63
2024/01/01 10:03:07;;;;;;;29.13;26.43;;;;;;;22.62;32.00;94906.06;6162666;28;109332;-63
2024/01/01 10:06:12;;;;;;;30.23;27.33;;;;;;;22.60;31.91;94891.47;6161607;28;109774;-64
2024/01/01 10:09:15;;;;;;;28.17;25.40;;;;;;;22.65;32.20;94902.75;6175779;28;109064;-63
2024/01/01 10:12:22;;;;;;;28.50;25.77;;;;;;;22.67;31.82;94889.91;6167550;28;109430;-64
2024/01/01 10:15:26;;;;;;;27.17;24.70;;;;;;;22.69;32.33;94879.72;6159026;28;109408;-64
2024/01/01 10:18:30;;;;;;;27.57;24.90;;;;;;;22.70;32.27;94880.50;6167358;28;109752;-64
2024/01/01 10:21:40;;;;;;;27.07;24.20;;;;;;;22.73;31.49;94871.09;6159243;28;109083;-63
2024/01/01 10:24:43;;;;;;;26.03;23.43;;;;;;;22.74;32.35;94862.00;6169779;28;109210;-63
2024/01/01 10:27:47;;;;;;;26.87;24.20;;;;;;;22.76;32.07;94865.13;6151351;28;109057;-64
2024/01/01 10:30:50;;;;;;;26.73;24.13;;;;;;;22.76;32.23;94862.44;6160238;28;109375;-64
2024/01/01 10:33:55;;;;;;;25.20;22.70;;;;;;;22.83;32.39;94852.09;6164240;28;110257;-63
2024/01/01 10:37:00;;;;;;;24.67;22.30;;;;;;;22.86;32.22;94854.16;6157415;28;109249;-63
2024/01/01 10:40:05;;;;;;;25.57;23.07;;;;;;;22.87;32.43;94853.03;6170665;28;111490;-63
2024/01/01 10:43:10;;;;;;;24.43;21.90;;;;;;;22.84;32.45;94854.44;6160656;28;108714;-64
2024/01/01 10:46:14;;;;;;;24.17;22.03;;;;;;;22.83;32.13;94865.41;6160427;28;110250;-64
2024/01/01 10:49:22;;;;;;;23.27;21.10;;;;;;;22.79;32.32;94854.59;6150722;28;110680;-63
2024/01/01 10:52:44;;;;;;;24.03;21.90;;;;;;;22.78;32.69;94852.25;6172129;28;109206;-64
2024/01/01 10:56:05;;;;;;;23.63;21.43;;;;;;;22.77;32.69;94842.69;6163455;28;109372;-63
2024/01/01 10:59:18;;;;;;;22.37;20.47;;;;;;;22.74;32.77;94845.97;6159039;28;109058;-63
2024/01/01 11:02:23;;;;;;;26.80;24.20;;;;;;;22.46;32.53;94840.13;6166269;28;110229;-60
2024/01/01 11:05:33;;;;;;;23.77;21.57;;;;;;;22.59;32.26;94833.91;6166335;28;109033;-61
2024/01/01 11:08:37;;;;;;;23.07;20.77;;;;;;;22.68;32.45;94827.47;6163081;28;109998;-61
2024/01/01 11:11:46;;;;;;;23.57;21.10;;;;;;;22.73;32.31;94817.75;6158616;28;109157;-61
2024/01/01 11:14:50;;;;;;;22.40;20.30;;;;;;;22.73;31.77;94826.53;6169170;28;110127;-60
2024/01/01 11:17:53;;;;;;;21.60;19.60;;;;;;;22.79;31.91;94816.47;6179122;28;109266;-62
2024/01/01 11:21:00;;;;;;;22.53;20.33;;;;;;;22.86;32.22;94820.25;6163414;28;109471;-60
2024/01/01 11:24:05;;;;;;;21.50;19.60;;;;;;;22.91;32.35;94822.75;6157903;28;109445;-61
2024/01/01 11:27:23;;;;;;;21.13;19.07;;;;;;;22.94;32.34;94819.44;6171335;28;109101;-62
2024/01/01 11:30:27;;;;;;;20.90;19.00;;;;;;;22.99;32.25;94805.13;6168288;28;110122;-61
2024/01/01 11:33:31;;;;;;;20.60;18.80;;;;;;;23.03;32.20;94805.31;6167348;28;109188;-61
2024/01/01 11:36:40;;;;;;;20.03;18.13;;;;;;;23.06;32.08;94813.47;6157123;28;110015;-61
2024/01/01 11:39:43;;;;;;;19.83;18.03;;;;;;;23.07;32.31;94809.69;6170406;28;110106;-61
2024/01/01 11:42:48;;;;;;;20.03;18.23;;;;;;;23.07;32.17;94814.25;6161889;28;109169;-61
2024/01/01 11:45:55;;;;;;;20.27;18.37;;;;;;;23.03;32.51;94800.75;6152424;28;109209;-61
2024/01/01 11:49:05;;;;;;;18.83;17.13;;;;;;;23.01;32.23;94797.59;6179827;28;109233;-61
2024/01/01 11:52:11;;;;;;;18.90;17.10;;;;;;;22.94;32.24;94806.09;6165392;28;109069;-61
2024/01/01 11:55:14;;;;;;;18.90;17.20;;;;;;;22.93;32.96;94783.19;6168407;28;109117;-61
2024/01/01 11:58:18;;;;;;;18.73;17.03;;;;;;;22.93;32.44;94785.84;6167757;28;110946;-60
2024/01/01 12:01:21;;;;;;;19.07;17.37;;;;;;;22.89;33.32;94794.81;6172438;28;110036;-63
2024/01/01 12:04:25;;;;;;;20.30;17.63;;;;;;;22.81;33.45;94792.91;6162448;28;109516;-60
2024/01/01 12:07:31;;;;;;;18.77;16.70;;;;;;;22.87;33.29;94792.47;6162047;28;109317;-61
2024/01/01 12:10:34;;;;;;;18.17;16.57;;;;;;;22.85;33.26;94800.00;6162744;28;109118;-60
2024/01/01 12:13:38;;;;;;;19.40;16.37;;;;;;;22.95;33.63;94810.31;6179920;28;110430;-63
2024/01/01 12:16:42;;;;;;;19.20;16.53;;;;;;;22.92;33.33;94802.97;6163260;28;109136;-64
2024/01/01 12:19:46;;;;;;;18.00;15.93;;;;;;;22.94;33.67;94797.31;6170690;28;109371;-63
2024/01/01 12:22:50;;;;;;;22.20;16.30;;;;;;;22.91;33.95;94787.25;6179665;28;108904;-61
2024/01/01 12:26:03;;;;;;;28.23;15.60;;;;;;;22.94;34.04;94787.41;6163719;28;109262;-62
2024/01/01 12:29:11;;;;;;;18.50;15.97;;;;;;;22.99;34.01;94789.13;6162523;28;110077;-60
2024/01/01 12:32:15;;;;;;;20.33;15.40;;;;;;;22.97;34.66;94799.34;6150992;28;109611;-61
2024/01/01 12:35:19;;;;;;;24.60;17.00;;;;;;;22.97;34.66;94783.31;6163079;28;109056;-63
2024/01/01 12:38:23;;;;;;;16.80;15.00;;;;;;;22.95;34.74;94788.97;6183343;28;110951;-62
2024/01/01 12:41:27;;;;;;;18.60;15.43;;;;;;;22.91;34.79;94787.25;6183623;28;109650;-61
2024/01/01 12:44:30;;;;;;;18.50;15.17;;;;;;;22.94;34.61;94786.63;6168020;28;109098;-62
2024/01/01 12:47:33;;;;;;;17.60;15.57;;;;;;;23.03;35.39;94782.06;6162038;28;109155;-61
2024/01/01 12:50:37;;;;;;;18.30;15.40;;;;;;;22.95;34.92;94772.97;6168145;28;110087;-62
2024/01/01 12:53:41;;;;;;;17.60;14.23;;;;;;;22.97;34.23;94777.97;6162658;28;109208;-62
2024/01/01 12:56:45;;;;;;;19.03;14.50;;;;;;;22.97;34.44;94780.66;6163510;28;109005;-61
2024/01/01 12:59:48;;;;;;;16.83;13.50;;;;;;;22.96;34.45;94784.44;6159349;28;109047;-61
2024/01/01 13:02:51;;;;;;;17.67;13.10;;;;;;;22.96;34.23;94785.22;6167808;28;110168;-61
2024/01/01 13:05:55;;;;;;;15.97;14.03;;;;;;;22.97;34.23;94784.09;6151995;28;109136;-61
2024/01/01 13:08:59;;;;;;;15.97;13.50;;;;;;;23.01;34.55;94776.25;6160025;28;109586;-61
2024/01/01 13:12:04;;;;;;;31.73;15.17;;;;;;;23.00;35.04;94780.78;6173606;28;109263;-60
2024/01/01 13:15:08;;;;;;;36.73;15.33;;;;;;;22.96;35.26;94768.41;6160329;28;109463;-61
2024/01/01 13:18:12;;;;;;;22.67;13.37;;;;;;;22.96;35.31;94763.06;6158416;28;109619;-61
2024/01/01 13:21:15;;;;;;;28.40;13.40;;;;;;;22.93;35.20;94766.38;6186714;28;109887;-61
2024/01/01 13:24:20;;;;;;;19.40;13.63;;;;;;;22.96;34.53;94763.06;6172935;28;110039;-61
2024/01/01 13:27:23;;;;;;;23.70;16.13;;;;;;;22.75;34.49;94768.31;6169868;28;109694;-63
2024/01/01 13:30:26;;;;;;;25.30;22.80;;;;;;;22.18;32.74;94760.47;6168561;28;110352;-63
2024/01/01 13:33:30;;;;;;;23.77;21.50;;;;;;;21.73;32.59;94752.69;6161212;28;109308;-63
2024/01/01 13:36:33;;;;;;;22.87;20.80;;;;;;;21.55;33.05;94753.72;6161340;28;109175;-62
2024/01/01 13:39:38;;;;;;;20.47;18.10;;;;;;;22.00;32.76;94746.31;6150586;28;110741;-62
2024/01/01 13:42:41;;;;;;;18.57;16.70;;;;;;;22.27;32.52;94737.25;6161532;28;109281;-63
2024/01/01 13:45:44;;;;;;;17.47;15.53;;;;;;;22.53;32.40;94755.91;6160560;28;109312;-62
2024/01/01 13:48:47;;;;;;;17.93;16.03;;;;;;;22.65;32.45;94742.72;6163767;28;109312;-62
2024/01/01 13:51:51;;;;;;;15.97;14.37;;;;;;;22.74;32.81;94745.41;6154923;28;109994;-63
2024/01/01 13:54:56;;;;;;;15.93;14.27;;;;;;;22.79;32.21;94747.09;6164252;28;109078;-63
2024/01/01 13:58:01;;;;;;;16.43;14.70;;;;;;;22.92;32.65;94749.59;6162118;28;110573;-61